Time;durP1;ratioP1;P1;durP2;ratioP2;P2;SDS_P1;SDS_P2;PMS_P1;PMS_P2;Temp;Humidity;BMP_temperature;BMP_pressure;BME280_temperature;BME280_humidity;BME280_pressure;Samples;Min_cycle;Max_cycle;Signal;HPM_P1;HPM_P2
2022/08/24 00:00:47;;;;;;;;;;;23.00;81.20;;;;;;5116277;28;20354;-53
2022/08/24 00:03:13;;;;;;;;;;;23.00;81.20;;;;;;5116517;28;19911;-55
2022/08/24 00:05:39;;;;;;;;;;;23.00;81.30;;;;;;5116649;28;19916;-57
2022/08/24 00:08:04;;;;;;;;;;;23.00;81.30;;;;;;5116597;28;20346;-54
2022/08/24 00:10:30;;;;;;;;;;;23.00;81.30;;;;;;5116165;28;19918;-52
2022/08/24 00:12:56;;;;;;;;;;;23.00;81.40;;;;;;5116456;28;20358;-55
2022/08/24 00:15:23;;;;;;;;;;;23.00;81.30;;;;;;5116227;28;19977;-53
2022/08/24 00:17:49;;;;;;;;;;;23.00;81.30;;;;;;5116741;28;19912;-55
2022/08/24 00:20:14;;;;;;;;;;;23.00;81.20;;;;;;5115521;28;20278;-57
2022/08/24 00:22:40;;;;;;;;;;;23.00;81.20;;;;;;5116127;28;19919;-51
2022/08/24 00:25:06;;;;;;;;;;;23.00;81.30;;;;;;5116178;28;19912;-54
2022/08/24 00:27:32;;;;;;;;;;;23.00;81.20;;;;;;5116189;28;19914;-57
2022/08/24 00:29:58;;;;;;;;;;;23.00;81.20;;;;;;5116035;28;19908;-56
2022/08/24 00:32:23;;;;;;;;;;;23.00;81.20;;;;;;5115704;28;19915;-55
2022/08/24 00:34:49;;;;;;;;;;;23.00;81.20;;;;;;5116050;28;19911;-55
2022/08/24 00:37:14;;;;;;;;;;;23.00;81.20;;;;;;5097725;28;19908;-56
2022/08/24 00:39:40;;;;;;;;;;;23.00;81.20;;;;;;5115523;28;19908;-56
2022/08/24 00:42:05;;;;;;;;;;;23.00;81.20;;;;;;5115788;28;19912;-55
2022/08/24 00:44:31;;;;;;;;;;;23.00;81.20;;;;;;5115475;28;20279;-54
2022/08/24 00:47:06;;;;;;;;;;;23.00;81.20;;;;;;5115515;28;19907;-56
2022/08/24 00:49:53;;;;;;;;;;;23.00;81.30;;;;;;5115230;28;20006;-55
2022/08/24 00:52:31;;;;;;;;;;;23.00;81.20;;;;;;5115253;28;19919;-57
2022/08/24 00:55:01;;;;;;;;;;;23.00;81.20;;;;;;5115594;28;19908;-57
2022/08/24 00:57:27;;;;;;;;;;;23.00;81.20;;;;;;5115097;28;20435;-55
2022/08/24 00:59:55;;;;;;;;;;;23.00;81.20;;;;;;5115151;28;19953;-54
2022/08/24 01:02:23;;;;;;;;;;;23.00;81.20;;;;;;5115058;28;19991;-57
2022/08/24 01:04:56;;;;;;;;;;;23.00;81.20;;;;;;5115357;28;20286;-54
2022/08/24 01:07:23;;;;;;;;;;;23.00;81.20;;;;;;5114989;28;19952;-57
2022/08/24 01:09:50;;;;;;;;;;;23.00;81.20;;;;;;5115050;28;19912;-53
2022/08/24 01:12:16;;;;;;;;;;;23.00;81.20;;;;;;5114944;28;20247;-57
2022/08/24 01:14:42;;;;;;;;;;;23.00;81.20;;;;;;5115164;28;19908;-56
2022/08/24 01:19:54;;;;;;;;;;;23.00;81.20;;;;;;5114877;28;19915;-57
2022/08/24 01:22:35;;;;;;;;;;;22.90;81.20;;;;;;5115009;28;20308;-52
2022/08/24 01:25:01;;;;;;;;;;;23.00;81.20;;;;;;5114763;28;20390;-56
2022/08/24 01:27:27;;;;;;;;;;;22.90;81.20;;;;;;5114972;28;19912;-55
2022/08/24 01:29:53;;;;;;;;;;;22.90;81.70;;;;;;5114636;28;19908;-55
2022/08/24 01:32:22;;;;;;;;;;;23.00;81.20;;;;;;5114265;28;19994;-56
2022/08/24 01:34:48;;;;;;;;;;;23.00;81.20;;;;;;5114713;28;19999;-57
2022/08/24 01:37:14;;;;;;;;;;;22.90;81.20;;;;;;5114418;28;20418;-55
2022/08/24 01:39:41;;;;;;;;;;;23.00;81.20;;;;;;5114505;28;19907;-53
2022/08/24 01:42:07;;;;;;;;;;;23.00;81.20;;;;;;5114654;28;20002;-54
2022/08/24 01:44:33;;;;;;;;;;;23.00;81.20;;;;;;5114403;28;20393;-57
2022/08/24 01:47:00;;;;;;;;;;;23.00;81.20;;;;;;5114613;28;19912;-56
2022/08/24 01:49:29;;;;;;;;;;;23.00;81.20;;;;;;5114706;28;19933;-54
2022/08/24 01:51:55;;;;;;;;;;;23.00;81.70;;;;;;5114202;28;19908;-55
2022/08/24 01:54:21;;;;;;;;;;;22.90;81.10;;;;;;5096559;28;19908;-54
2022/08/24 01:56:47;;;;;;;;;;;22.90;81.20;;;;;;5114477;28;20243;-56
2022/08/24 01:59:12;;;;;;;;;;;22.90;81.40;;;;;;5114395;28;20354;-56
2022/08/24 02:01:39;;;;;;;;;;;22.90;81.20;;;;;;5114399;28;20085;-54
2022/08/24 02:04:06;;;;;;;;;;;22.90;81.20;;;;;;5114475;28;19919;-53
2022/08/24 02:06:32;;;;;;;;;;;22.90;81.20;;;;;;5114059;28;19908;-55
2022/08/24 02:08:58;;;;;;;;;;;22.90;81.20;;;;;;5114156;28;19914;-56
2022/08/24 02:11:23;;;;;;;;;;;22.90;81.20;;;;;;5114680;28;19998;-51
2022/08/24 02:13:49;;;;;;;;;;;22.90;81.20;;;;;;5114524;28;20267;-56
2022/08/24 02:16:15;;;;;;;;;;;22.90;81.20;;;;;;5114369;28;20347;-56
2022/08/24 02:18:40;;;;;;;;;;;22.90;81.20;;;;;;5114367;28;19931;-53
2022/08/24 02:21:07;;;;;;;;;;;22.90;81.20;;;;;;5114042;28;19945;-51
2022/08/24 02:23:33;;;;;;;;;;;22.90;81.20;;;;;;5096238;28;19919;-53
2022/08/24 02:25:59;;;;;;;;;;;22.90;81.20;;;;;;5114412;28;19912;-55
2022/08/24 02:28:25;;;;;;;;;;;22.90;81.20;;;;;;5114146;28;19908;-53
2022/08/24 02:30:51;;;;;;;;;;;22.90;81.20;;;;;;5114312;28;19908;-56
2022/08/24 02:33:17;;;;;;;;;;;22.90;81.20;;;;;;5113937;28;19908;-54
2022/08/24 02:35:42;;;;;;;;;;;22.90;81.20;;;;;;5114563;28;19915;-57
2022/08/24 02:38:08;;;;;;;;;;;22.90;81.20;;;;;;5114030;28;20315;-55
2022/08/24 02:40:34;;;;;;;;;;;22.90;81.20;;;;;;5113997;28;19908;-55
2022/08/24 02:42:59;;;;;;;;;;;22.90;81.20;;;;;;5114768;28;19919;-55
2022/08/24 02:45:25;;;;;;;;;;;22.90;81.20;;;;;;5118301;28;19914;-54
2022/08/24 02:47:50;;;;;;;;;;;22.90;81.20;;;;;;5117897;28;19908;-57
2022/08/24 02:50:17;;;;;;;;;;;22.90;81.20;;;;;;5099857;28;20358;-57
2022/08/24 02:52:43;;;;;;;;;;;22.90;81.20;;;;;;5118142;28;19912;-56
2022/08/24 02:55:10;;;;;;;;;;;22.90;81.20;;;;;;5117829;28;19912;-54
2022/08/24 02:57:36;;;;;;;;;;;22.90;81.20;;;;;;5118114;28;19973;-57
2022/08/24 03:00:03;;;;;;;;;;;22.90;81.30;;;;;;5099646;28;19907;-55
2022/08/24 03:02:28;;;;;;;;;;;22.90;81.20;;;;;;5099510;28;19961;-56
2022/08/24 03:04:54;;;;;;;;;;;22.90;81.20;;;;;;5117999;28;20324;-55
2022/08/24 03:07:20;;;;;;;;;;;22.90;81.20;;;;;;5117855;28;19908;-55
2022/08/24 03:09:45;;;;;;;;;;;22.90;81.20;;;;;;5117522;28;19968;-55
2022/08/24 03:12:11;;;;;;;;;;;22.80;81.20;;;;;;5099471;28;19908;-55
2022/08/24 03:14:36;;;;;;;;;;;22.80;81.20;;;;;;5117380;28;19954;-56
2022/08/24 03:17:02;;;;;;;;;;;22.90;81.20;;;;;;5117850;28;19920;-57
2022/08/24 03:19:28;;;;;;;;;;;22.90;81.30;;;;;;5117329;28;20336;-54
2022/08/24 03:21:54;;;;;;;;;;;22.90;81.20;;;;;;5117257;28;19919;-53
2022/08/24 03:24:20;;;;;;;;;;;22.90;81.20;;;;;;5117476;28;20002;-55
2022/08/24 03:26:45;;;;;;;;;;;22.90;81.20;;;;;;5099103;28;20274;-55
2022/08/24 03:29:11;;;;;;;;;;;22.80;81.20;;;;;;5117486;28;19914;-54
2022/08/24 03:31:36;;;;;;;;;;;22.80;81.20;;;;;;5117290;28;19995;-57
2022/08/24 03:34:02;;;;;;;;;;;22.90;81.20;;;;;;5116922;28;20006;-56
2022/08/24 03:36:28;;;;;;;;;;;22.80;81.20;;;;;;5117254;28;19914;-56
2022/08/24 03:38:53;;;;;;;;;;;22.80;81.20;;;;;;5117070;28;19908;-55
2022/08/24 03:41:18;;;;;;;;;;;22.80;81.20;;;;;;5116819;28;19982;-53
2022/08/24 03:43:44;;;;;;;;;;;22.80;81.20;;;;;;5117191;28;19912;-55
2022/08/24 03:46:10;;;;;;;;;;;22.80;81.20;;;;;;5116761;28;19955;-57
2022/08/24 03:48:36;;;;;;;;;;;22.80;81.20;;;;;;5116743;28;19915;-55
2022/08/24 03:51:01;;;;;;;;;;;22.80;81.20;;;;;;5117069;28;19908;-57
2022/08/24 03:53:27;;;;;;;;;;;22.80;81.20;;;;;;5116701;28;19915;-54
2022/08/24 03:55:52;;;;;;;;;;;22.80;81.20;;;;;;5116643;28;20350;-55
2022/08/24 03:58:18;;;;;;;;;;;22.80;81.20;;;;;;5116657;28;20006;-55
2022/08/24 04:00:44;;;;;;;;;;;22.80;81.20;;;;;;5116531;28;19912;-54
2022/08/24 04:03:10;;;;;;;;;;;22.80;81.10;;;;;;5116497;28;19912;-56
2022/08/24 04:05:36;;;;;;;;;;;22.80;81.20;;;;;;5116766;28;20346;-52
2022/08/24 04:08:02;;;;;;;;;;;22.80;81.20;;;;;;5116355;28;19976;-56
2022/08/24 04:10:28;;;;;;;;;;;22.80;81.20;;;;;;5116620;28;19908;-55
2022/08/24 04:12:54;;;;;;;;;;;22.80;81.20;;;;;;5116332;28;20366;-55
2022/08/24 04:15:19;;;;;;;;;;;22.80;81.20;;;;;;5116113;28;19924;-57
2022/08/24 04:17:45;;;;;;;;;;;22.80;81.20;;;;;;5116525;28;20366;-54
2022/08/24 04:20:10;;;;;;;;;;;22.80;81.20;;;;;;5116429;28;19908;-55
2022/08/24 04:22:36;;;;;;;;;;;22.80;81.20;;;;;;5116029;28;20014;-57
2022/08/24 04:25:03;;;;;;;;;;;22.80;81.20;;;;;;5116098;28;19924;-55
2022/08/24 04:27:28;;;;;;;;;;;22.80;81.20;;;;;;5115837;28;19911;-56
2022/08/24 04:29:54;;;;;;;;;;;22.80;81.20;;;;;;5116107;28;20359;-55
2022/08/24 04:32:19;;;;;;;;;;;22.80;81.20;;;;;;5115970;28;19947;-56
2022/08/24 04:34:45;;;;;;;;;;;22.80;81.20;;;;;;5115932;28;19907;-54
2022/08/24 04:37:12;;;;;;;;;;;22.80;81.20;;;;;;5097728;28;19908;-56
2022/08/24 04:39:37;;;;;;;;;;;22.80;81.10;;;;;;5115700;28;19914;-57
2022/08/24 04:42:03;;;;;;;;;;;22.80;81.20;;;;;;5115437;28;20289;-57
2022/08/24 04:44:28;;;;;;;;;;;22.80;81.20;;;;;;5116183;28;20349;-56
2022/08/24 04:46:55;;;;;;;;;;;22.80;81.20;;;;;;5115866;28;20083;-55
2022/08/24 04:49:21;;;;;;;;;;;22.80;81.20;;;;;;5115742;28;20003;-57
2022/08/24 04:51:46;;;;;;;;;;;22.80;81.10;;;;;;5115468;28;19947;-57
2022/08/24 04:54:12;;;;;;;;;;;22.80;81.10;;;;;;5115363;28;19953;-57
2022/08/24 04:56:37;;;;;;;;;;;22.80;81.10;;;;;;5115150;28;19954;-57
2022/08/24 04:59:04;;;;;;;;;;;22.80;81.10;;;;;;5115392;28;19947;-55
2022/08/24 05:01:31;;;;;;;;;;;22.80;81.10;;;;;;5115158;28;20351;-54
2022/08/24 05:03:57;;;;;;;;;;;22.80;81.10;;;;;;5115135;28;19919;-53
2022/08/24 05:06:24;;;;;;;;;;;22.80;81.10;;;;;;5096419;28;19915;-56
2022/08/24 05:08:50;;;;;;;;;;;22.80;81.20;;;;;;5115289;28;19908;-56
2022/08/24 05:11:16;;;;;;;;;;;22.80;81.20;;;;;;5115352;28;19995;-54
2022/08/24 05:13:42;;;;;;;;;;;22.80;81.20;;;;;;5115581;28;19942;-55
2022/08/24 05:16:09;;;;;;;;;;;22.80;81.20;;;;;;5114692;28;20227;-57
2022/08/24 05:18:34;;;;;;;;;;;22.80;81.20;;;;;;5114766;28;19930;-56
2022/08/24 05:21:00;;;;;;;;;;;22.80;81.20;;;;;;5115035;28;20358;-53
2022/08/24 05:23:25;;;;;;;;;;;22.80;81.10;;;;;;5096828;28;19915;-56
2022/08/24 05:25:51;;;;;;;;;;;22.80;81.60;;;;;;5114424;28;19908;-53
2022/08/24 05:28:17;;;;;;;;;;;22.80;81.20;;;;;;5114648;28;19907;-57
2022/08/24 05:30:42;;;;;;;;;;;22.80;81.20;;;;;;5096799;28;19915;-56
2022/08/24 05:33:08;;;;;;;;;;;22.80;81.20;;;;;;5114523;28;19915;-55
2022/08/24 05:35:37;;;;;;;;;;;22.80;81.20;;;;;;5114881;28;19930;-52
2022/08/24 05:38:03;;;;;;;;;;;22.80;81.10;;;;;;5114126;28;19912;-55
2022/08/24 05:40:28;;;;;;;;;;;22.90;81.20;;;;;;5096549;28;19999;-55
2022/08/24 05:42:54;;;;;;;;;;;22.90;81.20;;;;;;5114208;28;20010;-54
2022/08/24 05:45:20;;;;;;;;;;;22.90;81.20;;;;;;5114158;28;19919;-56
2022/08/24 05:47:45;;;;;;;;;;;22.80;81.20;;;;;;5096110;28;19916;-55
2022/08/24 05:50:10;;;;;;;;;;;22.80;81.10;;;;;;5114220;28;19914;-55
2022/08/24 05:52:36;;;;;;;;;;;22.90;81.20;;;;;;5096434;28;20251;-50
2022/08/24 05:55:02;;;;;;;;;;;22.90;81.20;;;;;;5096261;28;19990;-54
2022/08/24 05:57:30;;;;;;;;;;;22.80;81.10;;;;;;5114169;28;19907;-56
2022/08/24 05:59:56;;;;;;;;;;;22.80;81.20;;;;;;5114354;28;19930;-56
2022/08/24 06:02:22;;;;;;;;;;;22.80;81.20;;;;;;5114302;28;19920;-55
2022/08/24 06:04:48;;;;;;;;;;;22.80;81.20;;;;;;5113991;28;20003;-54
2022/08/24 06:07:15;;;;;;;;;;;22.80;81.20;;;;;;5114044;28;19962;-56
2022/08/24 06:09:41;;;;;;;;;;;22.80;81.20;;;;;;5114000;28;19942;-54
2022/08/24 06:12:07;;;;;;;;;;;22.80;81.20;;;;;;5114324;28;20271;-56
2022/08/24 06:14:34;;;;;;;;;;;22.80;81.20;;;;;;5113990;28;19915;-56
2022/08/24 06:17:02;;;;;;;;;;;22.80;81.20;;;;;;5113647;28;20434;-57
2022/08/24 06:19:27;;;;;;;;;;;22.80;81.10;;;;;;5117386;28;19908;-55
2022/08/24 06:21:53;;;;;;;;;;;22.90;81.20;;;;;;5118497;28;20077;-54
2022/08/24 06:27:19;;;;;;;;;;;22.80;81.20;;;;;;5100320;28;19920;-53
2022/08/24 06:27:21;;;;;;;;;;;22.80;81.20;;;;;;5118142;28;20002;-53
2022/08/24 06:29:50;;;;;;;;;;;22.80;81.00;;;;;;5118573;28;19915;-53
2022/08/24 06:32:15;;;;;;;;;;;22.80;81.10;;;;;;5118420;28;19951;-52
2022/08/24 06:34:41;;;;;;;;;;;22.80;81.20;;;;;;5117930;28;20267;-55
2022/08/24 06:37:07;;;;;;;;;;;22.80;81.20;;;;;;5118529;28;19907;-53
2022/08/24 06:39:32;;;;;;;;;;;22.80;81.80;;;;;;5117920;28;19931;-52
2022/08/24 06:41:58;;;;;;;;;;;22.80;81.20;;;;;;5099973;28;19911;-55
2022/08/24 06:44:24;;;;;;;;;;;22.80;81.20;;;;;;5118164;28;20370;-57
2022/08/24 06:46:51;;;;;;;;;;;22.80;81.10;;;;;;5118064;28;19962;-54
2022/08/24 06:49:17;;;;;;;;;;;22.80;81.10;;;;;;5117871;28;20002;-56
2022/08/24 06:51:42;;;;;;;;;;;22.90;81.20;;;;;;5117926;28;19943;-57
2022/08/24 06:54:08;;;;;;;;;;;22.80;81.10;;;;;;5117929;28;19908;-54
2022/08/24 06:56:34;;;;;;;;;;;22.80;81.00;;;;;;5117523;28;19908;-54
2022/08/24 06:59:02;;;;;;;;;;;22.80;80.90;;;;;;5099579;28;20266;-54
2022/08/24 07:01:27;;;;;;;;;;;22.80;81.10;;;;;;5117639;28;19956;-55
2022/08/24 07:03:53;;;;;;;;;;;22.80;81.00;;;;;;5117701;28;20006;-53
2022/08/24 07:06:19;;;;;;;;;;;22.80;80.90;;;;;;5117525;28;19959;-54
2022/08/24 07:08:44;;;;;;;;;;;22.80;81.60;;;;;;5117398;28;19998;-56
2022/08/24 07:11:11;;;;;;;;;;;22.80;80.90;;;;;;5117367;28;19958;-52
2022/08/24 07:13:37;;;;;;;;;;;22.80;81.10;;;;;;5117450;28;19947;-55
2022/08/24 07:16:03;;;;;;;;;;;22.80;81.10;;;;;;5117361;28;19919;-56
2022/08/24 07:18:29;;;;;;;;;;;22.80;81.00;;;;;;5099036;28;19911;-54
2022/08/24 07:20:55;;;;;;;;;;;22.80;81.10;;;;;;5116846;28;20270;-56
2022/08/24 07:23:20;;;;;;;;;;;22.80;81.20;;;;;;5117143;28;19959;-53
2022/08/24 07:25:46;;;;;;;;;;;22.80;81.20;;;;;;5117040;28;19908;-54
2022/08/24 07:28:12;;;;;;;;;;;22.80;81.20;;;;;;5116765;28;19907;-56
2022/08/24 07:30:38;;;;;;;;;;;22.80;81.20;;;;;;5116507;28;19908;-56
2022/08/24 07:33:04;;;;;;;;;;;22.80;81.20;;;;;;5116979;28;19908;-56
2022/08/24 07:35:31;;;;;;;;;;;22.80;81.10;;;;;;5116714;28;19908;-53
2022/08/24 07:37:57;;;;;;;;;;;22.80;81.10;;;;;;5116620;28;19930;-55
2022/08/24 07:40:23;;;;;;;;;;;22.80;81.20;;;;;;5116709;28;19908;-55
2022/08/24 07:42:49;;;;;;;;;;;22.80;81.20;;;;;;5116554;28;20327;-55
2022/08/24 07:45:15;;;;;;;;;;;22.80;81.10;;;;;;5116526;28;20385;-54
2022/08/24 07:47:41;;;;;;;;;;;22.90;81.10;;;;;;5116764;28;19908;-57
2022/08/24 07:50:06;;;;;;;;;;;22.80;81.10;;;;;;5098171;28;19908;-55
2022/08/24 07:52:32;;;;;;;;;;;22.80;81.00;;;;;;5116439;28;20003;-53
2022/08/24 07:54:57;;;;;;;;;;;22.80;81.00;;;;;;5116576;28;20050;-56
2022/08/24 07:57:23;;;;;;;;;;;22.80;81.10;;;;;;5116563;28;19958;-54
2022/08/24 07:59:49;;;;;;;;;;;22.80;81.10;;;;;;5116700;28;19912;-54
2022/08/24 08:02:14;;;;;;;;;;;22.80;81.10;;;;;;5116437;28;19965;-54
2022/08/24 08:04:40;;;;;;;;;;;22.80;81.10;;;;;;5116726;28;20007;-55
2022/08/24 08:07:06;;;;;;;;;;;22.80;81.20;;;;;;5116165;28;19944;-53
2022/08/24 08:09:32;;;;;;;;;;;22.80;81.20;;;;;;5115940;28;19915;-56
2022/08/24 08:11:58;;;;;;;;;;;22.80;81.10;;;;;;5116303;28;19908;-52
2022/08/24 08:14:23;;;;;;;;;;;22.80;81.10;;;;;;5116317;28;19907;-53
2022/08/24 08:16:49;;;;;;;;;;;22.80;81.10;;;;;;5115432;28;19924;-57
2022/08/24 08:19:14;;;;;;;;;;;22.80;81.20;;;;;;5115846;28;19908;-57
2022/08/24 08:24:28;;;;;;;;;;;22.90;81.20;;;;;;5115973;28;19918;-54
2022/08/24 08:26:53;;;;;;;;;;;22.90;81.20;;;;;;5115760;28;19908;-53
2022/08/24 08:29:19;;;;;;;;;;;22.90;81.10;;;;;;5116140;28;19961;-52
2022/08/24 08:31:45;;;;;;;;;;;22.90;81.10;;;;;;5115865;28;19950;-55
2022/08/24 08:34:11;;;;;;;;;;;22.90;81.10;;;;;;5115702;28;19915;-55
2022/08/24 08:36:39;;;;;;;;;;;22.90;81.10;;;;;;5115917;28;19908;-55
2022/08/24 08:39:08;;;;;;;;;;;22.90;81.00;;;;;;5115860;28;19915;-54
2022/08/24 08:41:47;;;;;;;;;;;22.90;81.50;;;;;;5115338;28;19919;-54
2022/08/24 08:44:21;;;;;;;;;;;22.90;81.00;;;;;;5116184;28;19918;-56
2022/08/24 08:46:49;;;;;;;;;;;22.90;81.00;;;;;;5115461;28;20003;-57
2022/08/24 08:49:26;;;;;;;;;;;22.90;81.00;;;;;;5115341;28;20358;-56
2022/08/24 08:51:55;;;;;;;;;;;22.90;80.90;;;;;;5115394;28;19908;-57
2022/08/24 08:54:39;;;;;;;;;;;22.90;81.00;;;;;;5115270;28;19908;-53
2022/08/24 08:57:11;;;;;;;;;;;22.90;80.90;;;;;;5115227;28;19995;-51
2022/08/24 08:59:55;;;;;;;;;;;22.90;80.90;;;;;;5115140;28;19967;-54
2022/08/24 09:02:27;;;;;;;;;;;22.90;80.90;;;;;;5115199;28;19911;-56
2022/08/24 09:04:53;;;;;;;;;;;22.90;80.90;;;;;;5115171;28;19926;-54
2022/08/24 09:07:21;;;;;;;;;;;22.90;80.90;;;;;;5114637;28;20006;-55
2022/08/24 09:10:02;;;;;;;;;;;22.90;80.80;;;;;;5114807;28;19915;-55
2022/08/24 09:12:52;;;;;;;;;;;22.90;80.80;;;;;;5115251;28;19908;-55
2022/08/24 09:15:20;;;;;;;;;;;23.00;80.90;;;;;;5114958;28;19919;-54
2022/08/24 09:17:46;;;;;;;;;;;22.90;80.90;;;;;;5114936;28;19928;-56
2022/08/24 09:20:11;;;;;;;;;;;23.00;80.90;;;;;;5096980;28;20382;-56
2022/08/24 09:22:38;;;;;;;;;;;22.90;80.80;;;;;;5114839;28;19935;-56
2022/08/24 09:25:08;;;;;;;;;;;22.90;80.90;;;;;;5115199;28;20273;-55
2022/08/24 09:27:41;;;;;;;;;;;22.90;80.90;;;;;;5114807;28;19915;-56
2022/08/24 09:30:10;;;;;;;;;;;22.90;81.00;;;;;;5115012;28;20315;-56
2022/08/24 09:32:43;;;;;;;;;;;22.90;81.00;;;;;;5114906;28;19907;-55
2022/08/24 09:35:14;;;;;;;;;;;23.00;81.00;;;;;;5114811;28;19923;-53
2022/08/24 09:37:39;;;;;;;;;;;22.90;80.90;;;;;;5114488;28;20358;-55
2022/08/24 09:40:20;;;;;;;;;;;23.00;81.00;;;;;;5114390;28;19908;-51
2022/08/24 09:43:08;;;;;;;;;;;23.00;81.00;;;;;;5114172;28;19912;-54
2022/08/24 09:45:53;;;;;;;;;;;23.00;81.00;;;;;;5049518;28;19912;-57
2022/08/24 09:48:27;;;;;;;;;;;23.00;81.10;;;;;;5114545;28;19915;-54
2022/08/24 09:51:05;;;;;;;;;;;23.00;81.10;;;;;;5114681;28;20015;-56
2022/08/24 09:53:49;;;;;;;;;;;23.00;81.10;;;;;;5096082;28;19957;-57
2022/08/24 09:56:18;;;;;;;;;;;23.00;81.00;;;;;;5114056;28;19908;-54
2022/08/24 09:58:56;;;;;;;;;;;23.00;81.00;;;;;;5114049;28;19911;-55
2022/08/24 10:01:24;;;;;;;;;;;23.00;81.00;;;;;;5114384;28;19912;-55
2022/08/24 10:03:54;;;;;;;;;;;23.00;81.00;;;;;;5114459;28;19912;-57
2022/08/24 10:06:38;;;;;;;;;;;23.00;81.00;;;;;;5114030;28;19956;-54
2022/08/24 10:09:17;;;;;;;;;;;23.00;81.00;;;;;;5114367;28;19961;-52
2022/08/24 10:11:54;;;;;;;;;;;23.00;81.00;;;;;;5114058;28;19911;-55
2022/08/24 10:14:38;;;;;;;;;;;23.00;81.10;;;;;;5114040;28;19998;-54
2022/08/24 10:17:06;;;;;;;;;;;23.00;81.00;;;;;;5114236;28;19988;-53
2022/08/24 10:19:50;;;;;;;;;;;23.00;81.00;;;;;;5113878;28;20378;-57
2022/08/24 10:22:18;;;;;;;;;;;23.00;81.00;;;;;;5114205;28;19912;-56
2022/08/24 10:24:54;;;;;;;;;;;23.00;81.00;;;;;;5114098;28;19964;-53
2022/08/24 10:27:22;;;;;;;;;;;23.00;81.00;;;;;;5114200;28;19912;-55
2022/08/24 10:29:57;;;;;;;;;;;23.00;81.00;;;;;;5114509;28;19908;-55
2022/08/24 10:32:49;;;;;;;;;;;23.00;81.00;;;;;;5113936;28;19948;-56
2022/08/24 10:35:16;;;;;;;;;;;23.00;81.00;;;;;;5074696;28;19914;-54
2022/08/24 10:37:48;;;;;;;;;;;23.00;81.10;;;;;;5095750;28;19965;-53
2022/08/24 10:40:13;;;;;;;;;;;23.00;81.10;;;;;;5095851;28;19935;-53
2022/08/24 10:45:48;;;;;;;;;;;23.00;81.10;;;;;;5113609;28;19919;-55
2022/08/24 10:48:28;;;;;;;;;;;23.00;81.10;;;;;;5113812;28;19915;-54
2022/08/24 10:51:17;;;;;;;;;;;23.00;81.10;;;;;;5113757;28;19990;-57
2022/08/24 10:53:51;;;;;;;;;;;23.00;81.10;;;;;;5114023;28;20373;-53
2022/08/24 10:56:18;;;;;;;;;;;23.00;81.10;;;;;;5113680;28;19908;-54
2022/08/24 10:58:44;;;;;;;;;;;23.00;81.10;;;;;;5113855;28;19914;-56
2022/08/24 11:01:14;;;;;;;;;;;23.00;81.10;;;;;;5113748;28;20037;-55
2022/08/24 11:03:49;;;;;;;;;;;23.00;81.10;;;;;;5113861;28;19969;-53
2022/08/24 11:06:16;;;;;;;;;;;23.00;81.10;;;;;;5117830;28;19907;-55
2022/08/24 11:08:50;;;;;;;;;;;23.00;81.10;;;;;;5117449;28;20281;-54
2022/08/24 11:11:22;;;;;;;;;;;23.00;81.20;;;;;;5117712;28;19961;-57
2022/08/24 11:13:51;;;;;;;;;;;23.00;81.20;;;;;;5099377;28;19915;-57
2022/08/24 11:16:24;;;;;;;;;;;23.00;81.20;;;;;;5098919;28;19920;-55
2022/08/24 11:18:51;;;;;;;;;;;23.00;81.10;;;;;;5116954;28;19908;-52
2022/08/24 11:21:19;;;;;;;;;;;23.00;81.10;;;;;;5117351;28;19919;-54
2022/08/24 11:23:45;;;;;;;;;;;23.00;81.20;;;;;;5117727;28;19996;-53
2022/08/24 11:26:20;;;;;;;;;;;23.00;81.20;;;;;;5098839;28;20045;-52
2022/08/24 11:28:49;;;;;;;;;;;23.00;81.20;;;;;;5117347;28;20346;-52
2022/08/24 11:31:30;;;;;;;;;;;23.00;81.20;;;;;;5117186;28;19984;-53
2022/08/24 11:33:58;;;;;;;;;;;23.00;81.20;;;;;;5098932;28;19908;-53
2022/08/24 11:36:25;;;;;;;;;;;23.00;81.20;;;;;;5116726;28;19912;-57
2022/08/24 11:39:09;;;;;;;;;;;23.00;81.20;;;;;;5117330;28;19908;-52
2022/08/24 11:41:40;;;;;;;;;;;23.00;81.20;;;;;;5116799;28;20014;-55
2022/08/24 11:44:24;;;;;;;;;;;23.00;81.30;;;;;;5116950;28;19911;-56
2022/08/24 11:47:00;;;;;;;;;;;23.00;81.20;;;;;;5116642;28;20366;-55
2022/08/24 11:49:50;;;;;;;;;;;23.00;81.20;;;;;;5116490;28;19907;-54
2022/08/24 11:52:16;;;;;;;;;;;23.00;81.20;;;;;;5098680;28;20399;-54
2022/08/24 11:55:01;;;;;;;;;;;23.00;81.20;;;;;;5117052;28;19943;-52
2022/08/24 11:57:29;;;;;;;;;;;23.00;81.20;;;;;;5116658;28;19915;-56
2022/08/24 12:00:05;;;;;;;;;;;23.00;81.20;;;;;;5116777;28;19998;-56
2022/08/24 12:02:37;;;;;;;;;;;23.00;81.20;;;;;;5116680;28;20354;-55
2022/08/24 12:05:12;;;;;;;;;;;23.00;81.20;;;;;;5116277;28;19919;-56
2022/08/24 12:07:56;;;;;;;;;;;23.00;81.20;;;;;;5116179;28;19943;-54
2022/08/24 12:10:21;;;;;;;;;;;23.00;81.30;;;;;;5116068;28;19907;-55
2022/08/24 12:12:47;;;;;;;;;;;23.00;81.20;;;;;;5116348;28;20006;-56
2022/08/24 12:15:31;;;;;;;;;;;23.00;81.20;;;;;;5116191;28;20342;-56
2022/08/24 12:18:03;;;;;;;;;;;23.00;81.30;;;;;;5115782;28;20318;-56
2022/08/24 12:20:48;;;;;;;;;;;23.00;81.30;;;;;;5098032;28;19912;-56
2022/08/24 12:23:19;;;;;;;;;;;23.00;81.30;;;;;;5116149;28;20286;-57
2022/08/24 12:26:00;;;;;;;;;;;23.00;81.30;;;;;;5116454;28;20006;-56
2022/08/24 12:28:31;;;;;;;;;;;23.00;81.30;;;;;;5115828;28;19916;-55
2022/08/24 12:31:01;;;;;;;;;;;23.00;81.30;;;;;;5116620;28;19912;-56
2022/08/24 12:33:29;;;;;;;;;;;23.00;81.30;;;;;;5115807;28;19908;-56
2022/08/24 12:35:59;;;;;;;;;;;23.00;81.30;;;;;;5116029;28;19915;-54
2022/08/24 12:38:25;;;;;;;;;;;23.00;81.30;;;;;;5116033;28;19908;-52
2022/08/24 12:40:51;;;;;;;;;;;23.00;81.30;;;;;;5115933;28;20012;-56
2022/08/24 12:43:16;;;;;;;;;;;23.00;81.30;;;;;;5115543;28;19916;-55
2022/08/24 12:45:42;;;;;;;;;;;23.00;81.40;;;;;;5115353;28;19908;-55
2022/08/24 12:48:17;;;;;;;;;;;23.00;81.30;;;;;;5115678;28;20322;-56
2022/08/24 12:51:00;;;;;;;;;;;23.00;81.30;;;;;;5115523;28;19931;-56
2022/08/24 12:53:45;;;;;;;;;;;23.10;81.40;;;;;;5115674;28;19908;-55
2022/08/24 12:56:29;;;;;;;;;;;23.00;81.30;;;;;;5096999;28;19908;-52
2022/08/24 12:59:13;;;;;;;;;;;23.00;81.30;;;;;;5115180;28;19908;-54
2022/08/24 13:01:41;;;;;;;;;;;23.10;81.40;;;;;;5115126;28;19912;-53
2022/08/24 13:04:27;;;;;;;;;;;23.00;81.30;;;;;;5097184;28;19934;-55
2022/08/24 13:07:01;;;;;;;;;;;23.10;81.40;;;;;;5097011;28;19908;-57
2022/08/24 13:09:29;;;;;;;;;;;23.00;81.40;;;;;;5114868;28;19914;-56
2022/08/24 13:11:55;;;;;;;;;;;23.00;81.40;;;;;;5096997;28;19957;-54
2022/08/24 13:14:22;;;;;;;;;;;23.00;81.90;;;;;;5115259;28;19912;-56
2022/08/24 13:16:48;;;;;;;;;;;23.00;81.40;;;;;;5115122;28;19999;-55
2022/08/24 13:19:27;;;;;;;;;;;23.10;81.50;;;;;;5115098;28;20277;-56
2022/08/24 13:21:55;;;;;;;;;;;23.00;81.40;;;;;;5114839;28;20346;-53
2022/08/24 13:24:26;;;;;;;;;;;23.00;81.40;;;;;;5114817;28;19912;-51
2022/08/24 13:26:53;;;;;;;;;;;23.10;81.40;;;;;;5096567;28;19957;-52
2022/08/24 13:29:27;;;;;;;;;;;23.10;81.40;;;;;;5113875;28;19912;-55
2022/08/24 13:31:54;;;;;;;;;;;23.10;81.40;;;;;;5096773;28;20002;-53
2022/08/24 13:34:20;;;;;;;;;;;23.00;81.40;;;;;;5114987;28;20351;-52
2022/08/24 13:36:52;;;;;;;;;;;23.10;81.40;;;;;;5114496;28;20299;-51
2022/08/24 13:39:20;;;;;;;;;;;23.10;81.40;;;;;;5114837;28;19914;-54
2022/08/24 13:41:46;;;;;;;;;;;23.00;81.30;;;;;;5114433;28;19919;-56
2022/08/24 13:44:27;;;;;;;;;;;23.10;81.40;;;;;;5114705;28;19912;-56
2022/08/24 13:46:53;;;;;;;;;;;23.10;81.40;;;;;;5115059;28;19911;-55
2022/08/24 13:49:18;;;;;;;;;;;23.00;81.30;;;;;;5114503;28;19968;-55
2022/08/24 13:51:49;;;;;;;;;;;23.00;81.30;;;;;;5114280;28;20346;-56
2022/08/24 13:54:25;;;;;;;;;;;23.00;81.40;;;;;;5095977;28;19991;-56
2022/08/24 13:57:09;;;;;;;;;;;23.10;81.40;;;;;;5114544;28;19915;-56
2022/08/24 13:59:56;;;;;;;;;;;23.10;81.40;;;;;;5114014;28;19912;-54
2022/08/24 14:02:26;;;;;;;;;;;23.00;81.30;;;;;;5114074;28;20026;-51
2022/08/24 14:05:10;;;;;;;;;;;23.10;81.40;;;;;;5114597;28;19916;-54
2022/08/24 14:07:58;;;;;;;;;;;23.10;81.40;;;;;;5114218;28;19911;-56
2022/08/24 14:10:40;;;;;;;;;;;23.10;81.40;;;;;;5066730;28;19908;-54
2022/08/24 14:13:14;;;;;;;;;;;23.10;81.40;;;;;;5113819;28;19908;-53
2022/08/24 14:17:50;;;;;;;;;;;23.10;81.50;;;;;;5114261;28;19919;-54
2022/08/24 14:18:44;;;;;;;;;;;23.10;81.50;;;;;;5114111;28;20002;-53
2022/08/24 14:21:11;;;;;;;;;;;23.10;81.50;;;;;;5095998;28;20389;-54
2022/08/24 14:23:36;;;;;;;;;;;23.10;81.50;;;;;;5114168;28;20370;-54
2022/08/24 14:26:21;;;;;;;;;;;23.10;81.40;;;;;;5095644;28;20003;-55
2022/08/24 14:28:46;;;;;;;;;;;23.10;81.40;;;;;;5095841;28;19915;-54
2022/08/24 14:31:20;;;;;;;;;;;23.10;81.40;;;;;;5114191;28;19908;-56
2022/08/24 14:33:51;;;;;;;;;;;23.10;81.40;;;;;;5113946;28;19990;-56
2022/08/24 14:36:19;;;;;;;;;;;23.10;81.40;;;;;;5095825;28;19908;-56